Time;durP1;ratioP1;P1;durP2;ratioP2;P2;SDS_P1;SDS_P2;PMS_P1;PMS_P2;Temp;Humidity;BMP_temperature;BMP_pressure;BME280_temperature;BME280_humidity;BME280_pressure;Samples;Min_cycle;Max_cycle;Signal;HPM_P1;HPM_P2
2022/05/22 00:02:11;;;;;;;2.33;1.60;;;;;;;17.79;50.36;100107.03;5051558;28;20056;-73
2022/05/22 00:04:42;;;;;;;2.92;1.65;;;;;;;17.77;50.30;100110.88;5068476;28;20076;-73
2022/05/22 00:07:10;;;;;;;3.00;1.70;;;;;;;17.70;50.80;100108.72;5053021;28;20045;-73
2022/05/22 00:09:39;;;;;;;4.25;1.90;;;;;;;17.68;50.60;100109.84;5052919;28;20044;-73
2022/05/22 00:12:11;;;;;;;4.50;2.00;;;;;;;17.60;51.06;100102.44;5051780;28;20102;-73
2022/05/22 00:14:42;;;;;;;4.13;1.80;;;;;;;17.60;51.17;100107.84;5052933;28;20072;-73
2022/05/22 00:17:11;;;;;;;2.78;1.70;;;;;;;17.63;50.82;100106.69;5052790;28;20079;-73
2022/05/22 00:19:40;;;;;;;3.83;1.73;;;;;;;17.53;51.27;100095.91;5052835;28;20073;-73
2022/05/22 00:22:10;;;;;;;4.13;2.08;;;;;;;17.48;51.77;100100.03;5052988;28;20041;-73
2022/05/22 00:24:38;;;;;;;2.92;1.70;;;;;;;17.48;51.61;100100.88;5051911;28;20127;-73
2022/05/22 00:27:07;;;;;;;3.20;1.40;;;;;;;17.47;51.61;100101.88;5052904;28;20049;-73
2022/05/22 00:29:37;;;;;;;3.88;1.80;;;;;;;17.44;52.00;100102.97;5052766;28;20090;-73
2022/05/22 00:32:07;;;;;;;3.38;1.70;;;;;;;17.43;51.91;100100.44;5052687;28;20514;-73
2022/05/22 00:34:36;;;;;;;5.53;2.13;;;;;;;17.36;51.92;100100.13;5052701;28;20061;-73
2022/05/22 00:37:06;;;;;;;4.40;2.00;;;;;;;17.33;52.23;100102.25;5052745;28;20131;-73
2022/05/22 00:39:35;;;;;;;3.17;1.85;;;;;;;17.37;51.84;100095.56;5052424;28;20041;-73
2022/05/22 00:42:13;;;;;;;2.90;1.52;;;;;;;17.37;51.93;100091.06;5051465;28;20049;-73
2022/05/22 00:44:44;;;;;;;3.05;1.70;;;;;;;17.36;52.20;100088.50;5052921;28;20047;-73
2022/05/22 00:47:12;;;;;;;2.42;1.60;;;;;;;17.31;52.55;100090.75;5052584;28;20048;-74
2022/05/22 00:49:43;;;;;;;7.90;2.22;;;;;;;17.27;52.53;100090.16;5052329;28;20048;-73
2022/05/22 00:52:16;;;;;;;3.28;1.90;;;;;;;17.26;52.85;100093.00;5056471;28;20057;-73
2022/05/22 00:54:51;;;;;;;4.10;1.75;;;;;;;17.13;53.13;100088.75;5071859;28;20128;-73
2022/05/22 00:57:25;;;;;;;3.58;1.95;;;;;;;17.10;53.29;100091.72;5056223;28;20037;-73
2022/05/22 00:59:59;;;;;;;2.53;1.63;;;;;;;17.08;53.22;100091.00;5056448;28;20379;-73
2022/05/22 01:03:26;;;;;;;4.13;1.90;;;;;;;16.99;53.79;100094.53;5055846;28;20045;-73
2022/05/22 01:05:17;;;;;;;6.30;1.80;;;;;;;17.09;52.89;100079.25;5055717;28;20043;-73
2022/05/22 01:07:46;;;;;;;3.55;1.77;;;;;;;17.09;52.65;100087.31;5054962;28;20049;-73
2022/05/22 01:10:15;;;;;;;4.20;2.08;;;;;;;17.07;53.09;100083.88;5055947;28;20124;-73
2022/05/22 01:12:46;;;;;;;4.15;2.10;;;;;;;17.05;53.13;100085.88;5071732;28;20053;-73
2022/05/22 01:15:16;;;;;;;3.53;1.88;;;;;;;17.01;53.41;100095.25;5054681;28;20053;-74
2022/05/22 01:17:47;;;;;;;3.17;1.80;;;;;;;17.00;53.50;100082.75;5056638;28;20047;-73
2022/05/22 01:20:16;;;;;;;4.68;2.10;;;;;;;16.97;53.42;100074.94;5055495;28;20055;-73
2022/05/22 01:22:46;;;;;;;5.78;2.22;;;;;;;16.94;53.57;100077.91;5055646;28;20045;-73
2022/05/22 01:25:14;;;;;;;3.90;2.10;;;;;;;16.89;54.10;100077.47;5055686;28;20041;-74
2022/05/22 01:27:42;;;;;;;5.20;2.30;;;;;;;16.90;53.75;100081.88;5055799;28;20128;-73
2022/05/22 01:30:14;;;;;;;3.47;1.80;;;;;;;16.93;53.61;100078.03;5055719;28;20076;-73
2022/05/22 01:32:44;;;;;;;3.38;1.83;;;;;;;16.84;54.00;100080.56;5055772;28;20037;-73
2022/05/22 01:35:16;;;;;;;3.45;2.05;;;;;;;16.81;54.08;100080.00;5055466;28;20123;-73
2022/05/22 01:37:46;;;;;;;3.88;1.80;;;;;;;16.78;54.30;100083.78;5055713;28;20433;-73
2022/05/22 01:40:16;;;;;;;3.13;1.90;;;;;;;16.73;54.87;100079.81;5055717;28;20084;-73
2022/05/22 01:42:45;;;;;;;2.95;1.95;;;;;;;16.72;54.48;100073.59;5055576;28;20410;-73
2022/05/22 01:45:16;;;;;;;5.50;2.00;;;;;;;16.73;54.49;100075.28;5055218;28;20052;-72
2022/05/22 01:47:45;;;;;;;4.85;2.22;;;;;;;16.71;55.14;100076.41;5055546;28;20470;-73
2022/05/22 01:50:14;;;;;;;2.47;1.67;;;;;;;16.64;55.39;100086.84;5055056;28;20041;-73
2022/05/22 01:52:43;;;;;;;4.28;1.80;;;;;;;16.71;54.79;100081.81;5055380;28;20091;-72
2022/05/22 01:55:14;;;;;;;4.97;1.92;;;;;;;16.64;55.27;100075.22;5070670;28;20098;-73
2022/05/22 01:57:43;;;;;;;2.92;1.90;;;;;;;16.62;54.91;100083.44;5055641;28;20063;-75
2022/05/22 02:00:15;;;;;;;5.15;2.00;;;;;;;16.62;54.66;100069.13;5054988;28;20045;-74
2022/05/22 02:02:44;;;;;;;3.53;1.80;;;;;;;16.67;54.94;100077.63;5054814;28;20041;-72
2022/05/22 02:05:13;;;;;;;3.08;1.75;;;;;;;16.53;55.21;100068.94;5055170;28;20049;-73
2022/05/22 02:10:28;;;;;;;6.75;1.88;;;;;;;16.50;55.59;100079.97;5054940;28;20390;-75
2022/05/22 02:12:56;;;;;;;4.97;1.98;;;;;;;16.45;55.75;100084.91;5055017;28;20044;-74
2022/05/22 02:15:25;;;;;;;3.28;1.77;;;;;;;16.39;56.08;100074.66;5054719;28;20041;-74
2022/05/22 02:17:53;;;;;;;2.83;1.67;;;;;;;16.42;55.72;100079.78;5054938;28;20091;-72
2022/05/22 02:20:22;;;;;;;5.15;2.10;;;;;;;16.40;55.62;100080.88;5054615;28;20124;-74
2022/05/22 02:22:52;;;;;;;3.97;1.85;;;;;;;16.38;55.70;100075.66;5054629;28;20534;-74
2022/05/22 02:25:23;;;;;;;3.38;1.90;;;;;;;16.40;55.67;100076.34;5054626;28;20100;-74
2022/05/22 02:27:53;;;;;;;3.42;1.70;;;;;;;16.37;56.01;100075.78;5054894;28;20041;-74
2022/05/22 02:30:24;;;;;;;2.50;1.73;;;;;;;16.25;56.45;100080.41;5054491;28;20041;-74
2022/05/22 02:32:52;;;;;;;4.72;2.00;;;;;;;16.23;56.63;100077.84;5054813;28;20076;-72
2022/05/22 02:35:21;;;;;;;3.45;1.90;;;;;;;16.19;56.71;100081.75;5054005;28;20119;-74
2022/05/22 02:37:51;;;;;;;4.90;2.20;;;;;;;16.19;57.30;100078.22;5054206;28;20041;-74
2022/05/22 02:40:21;;;;;;;3.70;1.83;;;;;;;16.18;57.05;100079.22;5054207;28;20039;-75
2022/05/22 02:42:54;;;;;;;3.38;2.00;;;;;;;16.15;57.78;100085.72;5054585;28;20048;-74
2022/05/22 02:45:24;;;;;;;6.38;1.92;;;;;;;16.09;58.37;100088.94;5052914;28;20067;-75
2022/05/22 02:47:53;;;;;;;3.83;2.10;;;;;;;16.09;58.86;100077.31;5054490;28;20045;-74
2022/05/22 02:50:23;;;;;;;4.68;2.03;;;;;;;16.09;59.33;100088.06;5054040;28;20078;-74
2022/05/22 02:52:52;;;;;;;4.25;2.10;;;;;;;16.05;59.79;100089.34;5054533;28;20061;-74
2022/05/22 02:55:21;;;;;;;5.47;2.58;;;;;;;16.11;59.72;100095.03;5053658;28;20481;-74
2022/05/22 02:57:50;;;;;;;3.40;2.00;;;;;;;16.07;60.30;100084.66;5054292;28;20041;-73
2022/05/22 03:00:23;;;;;;;4.85;2.20;;;;;;;16.05;60.50;100083.97;5053829;28;20053;-74
2022/05/22 03:02:55;;;;;;;5.75;2.35;;;;;;;16.01;61.24;100089.56;5054181;28;20045;-73
2022/05/22 03:05:26;;;;;;;9.50;2.42;;;;;;;15.99;60.90;100085.31;5053798;28;20099;-75
2022/05/22 03:07:54;;;;;;;4.13;2.28;;;;;;;15.91;61.42;100088.66;5053770;28;20040;-73
2022/05/22 03:10:24;;;;;;;3.80;2.40;;;;;;;15.73;62.42;100090.25;5053756;28;20136;-72
2022/05/22 03:12:53;;;;;;;3.88;2.13;;;;;;;15.83;62.17;100096.53;5053149;28;20052;-72
2022/05/22 03:15:23;;;;;;;5.25;2.08;;;;;;;15.77;62.48;100105.13;5053612;28;20447;-73
2022/05/22 03:17:51;;;;;;;6.15;2.20;;;;;;;15.79;62.78;100105.84;5053883;28;20045;-73
2022/05/22 03:20:19;;;;;;;4.53;2.22;;;;;;;15.87;61.59;100106.06;5053810;28;20049;-73
2022/05/22 03:22:48;;;;;;;5.65;2.10;;;;;;;15.86;61.13;100109.72;5053712;28;20080;-73
2022/05/22 03:25:16;;;;;;;5.18;2.28;;;;;;;15.91;61.16;100109.31;5053651;28;20494;-73
2022/05/22 03:27:44;;;;;;;4.65;2.50;;;;;;;15.92;60.58;100105.66;5053161;28;20505;-73
2022/05/22 03:30:14;;;;;;;4.63;2.10;;;;;;;15.87;61.05;100108.75;5053371;28;20048;-72
2022/05/22 03:32:43;;;;;;;5.50;2.30;;;;;;;16.02;59.99;100107.44;5053285;28;20051;-73
2022/05/22 03:35:11;;;;;;;5.22;2.40;;;;;;;16.03;60.11;100103.78;5053482;28;20041;-73
2022/05/22 03:37:40;;;;;;;4.32;2.10;;;;;;;16.17;59.67;100094.50;5053225;28;20045;-74
2022/05/22 03:40:09;;;;;;;4.47;1.85;;;;;;;16.35;58.87;100091.22;5053163;28;20044;-74
2022/05/22 03:42:37;;;;;;;4.47;2.03;;;;;;;16.52;57.78;100088.78;5052865;28;20045;-74
2022/05/22 03:45:07;;;;;;;4.43;2.00;;;;;;;17.13;55.98;100094.13;5053346;28;20095;-74
2022/05/22 03:47:35;;;;;;;5.82;1.98;;;;;;;18.01;53.07;100097.78;5053133;28;20402;-74
2022/05/22 03:50:07;;;;;;;4.07;2.10;;;;;;;17.70;52.89;100106.03;5053396;28;20041;-72
2022/05/22 03:52:37;;;;;;;4.85;2.08;;;;;;;16.99;55.14;100101.75;5052664;28;20108;-73
2022/05/22 03:55:09;;;;;;;3.92;2.08;;;;;;;16.45;57.14;100116.34;5053244;28;20045;-72
2022/05/22 03:57:37;;;;;;;6.32;2.50;;;;;;;16.35;57.66;100119.00;5068519;28;20049;-74
2022/05/22 04:00:11;;;;;;;4.95;1.90;;;;;;;16.35;56.89;100113.59;5053342;28;20045;-74
2022/05/22 04:02:39;;;;;;;4.10;1.80;;;;;;;16.41;57.50;100120.31;5052694;28;20124;-72
2022/05/22 04:05:10;;;;;;;3.97;2.30;;;;;;;16.38;56.83;100121.41;5052274;28;20100;-74
2022/05/22 04:07:39;;;;;;;4.00;1.90;;;;;;;16.32;56.88;100119.25;5051576;28;20055;-75
2022/05/22 04:10:09;;;;;;;3.83;1.98;;;;;;;16.13;57.71;100120.00;5051900;28;20131;-74
2022/05/22 04:12:38;;;;;;;2.88;1.73;;;;;;;16.09;57.85;100125.75;5052453;28;20048;-75
2022/05/22 04:15:08;;;;;;;3.90;2.08;;;;;;;16.11;57.83;100132.69;5053154;28;20486;-73
2022/05/22 04:17:37;;;;;;;6.70;1.98;;;;;;;16.16;57.30;100124.25;5052815;28;20052;-72
2022/05/22 04:20:09;;;;;;;4.75;2.03;;;;;;;16.28;57.15;100129.41;5068387;28;20049;-74
2022/05/22 04:25:11;;;;;;;5.13;2.05;;;;;;;16.28;57.29;100131.25;5068225;28;20141;-75
2022/05/22 04:25:25;;;;;;;5.53;2.20;;;;;;;16.39;56.46;100125.81;5055531;28;20111;-74
2022/05/22 04:27:53;;;;;;;4.00;2.03;;;;;;;16.44;56.64;100131.66;5056969;28;20044;-72
2022/05/22 04:30:24;;;;;;;4.28;2.10;;;;;;;16.59;55.83;100132.16;5056997;28;20049;-72
2022/05/22 04:32:53;;;;;;;4.40;2.15;;;;;;;16.48;56.23;100134.91;5056493;28;20041;-74
2022/05/22 04:35:23;;;;;;;4.40;1.92;;;;;;;16.45;56.72;100137.88;5072419;28;20049;-74
2022/05/22 04:37:52;;;;;;;4.90;2.15;;;;;;;16.64;56.06;100134.47;5072292;28;20051;-74
2022/05/22 04:40:20;;;;;;;4.40;2.15;;;;;;;16.86;55.01;100134.31;5056759;28;20049;-74
2022/05/22 04:42:48;;;;;;;6.53;1.88;;;;;;;17.14;54.00;100116.53;5056537;28;20071;-74
2022/05/22 04:45:17;;;;;;;5.28;2.10;;;;;;;17.28;53.74;100124.25;5056642;28;20052;-74
2022/05/22 04:47:45;;;;;;;3.67;2.05;;;;;;;17.82;51.36;100122.91;5056427;28;20037;-74
2022/05/22 04:50:15;;;;;;;3.60;1.90;;;;;;;18.70;49.35;100124.50;5071939;28;20053;-74
2022/05/22 04:52:45;;;;;;;3.85;1.90;;;;;;;19.52;46.43;100123.69;5056220;28;20088;-73
2022/05/22 04:55:19;;;;;;;3.40;1.85;;;;;;;20.47;44.68;100108.69;5056537;28;20044;-73
2022/05/22 04:57:47;;;;;;;4.57;1.90;;;;;;;20.75;43.12;100118.34;5056188;28;20041;-72
2022/05/22 05:00:16;;;;;;;4.15;2.00;;;;;;;20.80;43.50;100109.69;5056375;28;20072;-72
2022/05/22 05:02:44;;;;;;;5.00;1.63;;;;;;;20.62;43.36;100115.19;5056137;28;20051;-72
2022/05/22 05:05:12;;;;;;;3.83;1.92;;;;;;;20.62;43.00;100114.34;5056244;28;20048;-72
2022/05/22 05:07:41;;;;;;;3.60;1.88;;;;;;;20.20;43.97;100120.47;5056005;28;20041;-72
2022/05/22 05:10:12;;;;;;;5.22;2.03;;;;;;;20.48;43.80;100123.91;5054792;28;20049;-72
2022/05/22 05:12:42;;;;;;;5.80;2.10;;;;;;;20.26;43.77;100125.22;5055930;28;20045;-74
2022/05/22 05:15:14;;;;;;;3.42;1.70;;;;;;;21.37;42.00;100116.25;5054952;28;20482;-73
2022/05/22 05:17:43;;;;;;;4.60;1.88;;;;;;;20.73;42.83;100116.78;5055909;28;20040;-72
2022/05/22 05:20:16;;;;;;;3.03;1.42;;;;;;;20.97;41.94;100122.34;5056077;28;20041;-73
2022/05/22 05:22:45;;;;;;;4.15;2.00;;;;;;;21.44;41.59;100116.44;5055838;28;20072;-74
2022/05/22 05:25:15;;;;;;;3.60;1.73;;;;;;;21.83;40.84;100119.41;5055936;28;20045;-74
2022/05/22 05:27:43;;;;;;;5.30;1.70;;;;;;;22.30;39.27;100109.78;5055484;28;20064;-74
2022/05/22 05:30:13;;;;;;;3.30;1.60;;;;;;;22.57;38.16;100114.81;5055912;28;20045;-74
2022/05/22 05:32:42;;;;;;;4.25;1.63;;;;;;;23.04;37.35;100109.44;5055724;28;20060;-74
2022/05/22 05:35:12;;;;;;;2.25;1.30;;;;;;;23.43;37.31;100120.28;5054216;28;20055;-74
2022/05/22 05:37:40;;;;;;;2.90;1.45;;;;;;;24.06;36.14;100115.66;5053578;28;20056;-74
2022/05/22 05:40:09;;;;;;;3.40;1.85;;;;;;;24.04;35.46;100112.28;5055326;28;20045;-74
2022/05/22 05:42:40;;;;;;;4.10;1.52;;;;;;;23.92;36.00;100116.44;5055386;28;20045;-74
2022/05/22 05:45:11;;;;;;;3.03;1.40;;;;;;;23.03;37.18;100113.19;5054423;28;20048;-74
2022/05/22 05:47:42;;;;;;;5.03;1.77;;;;;;;22.82;37.28;100123.75;5055088;28;20051;-73
2022/05/22 05:50:11;;;;;;;3.55;1.52;;;;;;;21.93;38.89;100130.09;5055575;28;20045;-72
2022/05/22 05:52:39;;;;;;;3.20;1.50;;;;;;;22.54;38.17;100126.03;5053437;28;20056;-74
2022/05/22 05:55:08;;;;;;;3.75;1.60;;;;;;;21.58;40.32;100123.94;5055379;28;20048;-74
2022/05/22 05:57:36;;;;;;;2.72;1.50;;;;;;;21.82;38.83;100130.44;5055177;28;20076;-74
2022/05/22 06:00:08;;;;;;;3.17;1.50;;;;;;;24.08;34.94;100127.22;5054249;28;20055;-74
2022/05/22 06:02:36;;;;;;;4.70;1.52;;;;;;;23.73;36.89;100127.81;5070556;28;20053;-74
2022/05/22 06:05:07;;;;;;;6.40;1.60;;;;;;;23.10;38.28;100121.50;5070544;28;20409;-74
2022/05/22 06:07:35;;;;;;;4.75;1.70;;;;;;;22.05;40.00;100115.16;5070144;28;20379;-74
2022/05/22 06:10:04;;;;;;;4.07;1.58;;;;;;;21.45;41.41;100123.56;5053824;28;20099;-74
2022/05/22 06:12:33;;;;;;;5.13;1.90;;;;;;;22.09;40.53;100121.97;5070149;28;20449;-76
2022/05/22 06:15:02;;;;;;;3.67;1.58;;;;;;;23.16;38.34;100115.31;5055001;28;20087;-74
2022/05/22 06:17:35;;;;;;;2.88;1.40;;;;;;;23.13;36.40;100104.81;5054953;28;20045;-74
2022/05/22 06:20:06;;;;;;;2.17;1.40;;;;;;;22.91;37.50;100116.47;5055119;28;20052;-74
2022/05/22 06:22:35;;;;;;;4.60;1.67;;;;;;;23.17;37.19;100110.75;5054718;28;20398;-74
2022/05/22 06:25:09;;;;;;;4.88;1.77;;;;;;;22.47;38.48;100114.13;5054773;28;20509;-74
2022/05/22 06:27:41;;;;;;;4.43;1.50;;;;;;;22.99;36.60;100113.72;5069993;28;20380;-74
2022/05/22 06:30:12;;;;;;;2.20;1.30;;;;;;;22.01;38.21;100108.38;5054750;28;20123;-74
2022/05/22 06:32:43;;;;;;;2.28;1.25;;;;;;;21.13;40.68;100126.97;5069455;28;20524;-74
2022/05/22 06:35:13;;;;;;;3.25;1.80;;;;;;;21.89;38.80;100118.72;5054620;28;20047;-72
2022/05/22 06:37:41;;;;;;;4.20;1.50;;;;;;;23.18;35.61;100126.91;5054348;28;20393;-74
2022/05/22 06:40:09;;;;;;;3.25;1.58;;;;;;;24.06;34.42;100106.66;5054151;28;20057;-74
2022/05/22 06:42:42;;;;;;;2.35;1.23;;;;;;;23.69;35.00;100116.44;5069826;28;20399;-74
2022/05/22 06:45:15;;;;;;;3.90;1.73;;;;;;;24.17;33.99;100115.22;5054467;28;20398;-74
2022/05/22 06:47:45;;;;;;;3.47;1.70;;;;;;;24.12;33.64;100119.53;5069539;28;20049;-74
2022/05/22 06:50:16;;;;;;;4.68;1.50;;;;;;;24.53;33.59;100115.44;5054103;28;20124;-73
2022/05/22 06:52:44;;;;;;;2.78;1.60;;;;;;;23.46;35.04;100113.66;5054010;28;20084;-74
2022/05/22 06:55:13;;;;;;;3.85;1.25;;;;;;;22.91;35.69;100116.47;5053963;28;20037;-74
2022/05/22 06:57:41;;;;;;;3.70;1.67;;;;;;;22.21;37.37;100126.06;5053933;28;20045;-74
2022/05/22 07:00:14;;;;;;;3.97;1.50;;;;;;;21.58;38.93;100115.78;5053062;28;20052;-74
2022/05/22 07:02:44;;;;;;;4.80;1.60;;;;;;;21.55;38.79;100116.13;5069312;28;20135;-74
2022/05/22 07:05:12;;;;;;;4.75;1.70;;;;;;;20.71;41.46;100113.38;5069280;28;20053;-73
2022/05/22 07:07:41;;;;;;;3.85;1.77;;;;;;;21.25;40.83;100101.25;5053628;28;20390;-73
2022/05/22 07:10:10;;;;;;;3.50;1.60;;;;;;;21.35;40.49;100101.16;5069077;28;20076;-72
2022/05/22 07:12:38;;;;;;;4.10;1.77;;;;;;;21.06;41.32;100102.38;5052180;28;20045;-74
2022/05/22 07:15:08;;;;;;;3.28;1.70;;;;;;;21.67;39.22;100095.78;5053815;28;20044;-73
2022/05/22 07:17:38;;;;;;;2.42;1.45;;;;;;;21.01;40.42;100090.31;5052515;28;20124;-73
2022/05/22 07:20:10;;;;;;;2.20;1.33;;;;;;;21.27;40.58;100093.00;5054291;28;20432;-73
2022/05/22 07:22:42;;;;;;;3.90;1.52;;;;;;;21.41;40.48;100092.34;5068837;28;20053;-73
2022/05/22 07:25:11;;;;;;;3.95;1.80;;;;;;;21.13;41.74;100083.56;5052463;28;20091;-73
2022/05/22 07:27:41;;;;;;;3.47;1.58;;;;;;;21.62;39.62;100076.47;5053519;28;20045;-74
2022/05/22 07:30:10;;;;;;;2.88;1.58;;;;;;;21.26;39.65;100085.84;5052030;28;20550;-73
2022/05/22 07:32:38;;;;;;;3.97;1.52;;;;;;;21.30;38.17;100082.66;5068827;28;20103;-73
2022/05/22 07:35:09;;;;;;;2.95;1.55;;;;;;;21.49;38.55;100076.06;5068745;28;20049;-73
2022/05/22 07:37:37;;;;;;;3.35;1.90;;;;;;;21.60;39.25;100066.75;5068910;28;20441;-73
2022/05/22 07:40:06;;;;;;;2.88;1.40;;;;;;;21.45;40.06;100074.72;5053326;28;20044;-73
2022/05/22 07:42:35;;;;;;;3.47;1.50;;;;;;;21.35;38.60;100084.88;5068430;28;20508;-73
2022/05/22 07:45:04;;;;;;;4.90;1.60;;;;;;;21.09;39.92;100072.22;5053119;28;20098;-73
2022/05/22 07:47:32;;;;;;;3.78;1.77;;;;;;;21.07;39.56;100071.53;5053086;28;20110;-73
2022/05/22 07:50:20;;;;;;;4.10;1.75;;;;;;;20.87;39.86;100070.09;5068304;28;20059;-73
2022/05/22 07:52:51;;;;;;;5.80;1.63;;;;;;;20.64;39.89;100061.66;5052869;28;20048;-73
2022/05/22 07:55:21;;;;;;;2.80;1.50;;;;;;;20.80;40.53;100060.91;5068687;28;20059;-73
2022/05/22 07:57:50;;;;;;;2.97;1.23;;;;;;;20.54;40.79;100069.06;5068238;28;20053;-73
2022/05/22 08:00:20;;;;;;;5.32;1.60;;;;;;;20.49;40.82;100061.44;5067953;28;20128;-73
2022/05/22 08:02:49;;;;;;;3.33;1.50;;;;;;;20.85;40.25;100050.44;5051600;28;20110;-73
2022/05/22 08:05:20;;;;;;;3.78;1.40;;;;;;;20.93;40.42;100055.03;5053204;28;20045;-73
2022/05/22 08:07:50;;;;;;;3.35;1.60;;;;;;;21.13;39.97;100054.63;5052562;28;20116;-73
2022/05/22 08:10:19;;;;;;;3.53;1.58;;;;;;;20.66;40.62;100045.28;5052717;28;20041;-73
2022/05/22 08:12:50;;;;;;;4.15;1.80;;;;;;;20.64;40.80;100058.97;5052829;28;20041;-73
2022/05/22 08:15:21;;;;;;;5.03;1.67;;;;;;;20.58;40.37;100057.75;5053115;28;20128;-73
2022/05/22 08:17:49;;;;;;;3.15;1.42;;;;;;;20.80;40.44;100060.91;5051517;28;20049;-73
2022/05/22 08:20:20;;;;;;;3.63;1.70;;;;;;;20.80;40.07;100048.22;5053104;28;20068;-73
2022/05/22 08:22:57;;;;;;;4.65;1.50;;;;;;;21.00;39.33;100056.94;5068193;28;20499;-73
2022/05/22 08:25:27;;;;;;;2.92;1.67;;;;;;;20.84;39.50;100037.88;5051847;28;20064;-73
2022/05/22 08:27:56;;;;;;;3.33;1.60;;;;;;;20.81;39.25;100039.06;5052605;28;20059;-73
2022/05/22 08:30:28;;;;;;;5.40;1.55;;;;;;;20.58;40.05;100046.94;5052962;28;20047;-72
2022/05/22 08:32:57;;;;;;;3.55;1.60;;;;;;;20.55;41.11;100033.69;5051541;28;20080;-73
2022/05/22 08:35:28;;;;;;;3.42;1.55;;;;;;;20.84;40.94;100043.28;5051572;28;20053;-73
2022/05/22 08:37:57;;;;;;;2.88;1.70;;;;;;;20.59;41.10;100045.06;5052538;28;20102;-73
2022/05/22 08:40:28;;;;;;;4.35;1.50;;;;;;;20.80;40.34;100041.94;5052949;28;20068;-73
2022/05/22 08:43:04;;;;;;;6.47;2.90;;;;;;;20.88;39.47;100050.09;5052506;28;20061;-73
2022/05/22 08:45:39;;;;;;;3.70;1.70;;;;;;;20.79;39.80;100035.66;5052847;28;20095;-72
2022/05/22 08:48:17;;;;;;;3.22;1.48;;;;;;;20.70;40.20;100019.53;5052861;28;20056;-73
2022/05/22 08:50:47;;;;;;;2.72;1.50;;;;;;;20.70;39.93;100030.38;5051432;28;20048;-75
2022/05/22 08:53:29;;;;;;;6.93;1.63;;;;;;;20.70;40.11;100035.78;5052855;28;20418;-72
2022/05/22 08:58:57;;;;;;;4.40;1.52;;;;;;;20.98;39.68;100017.44;5051201;28;20136;-72
2022/05/22 09:01:44;;;;;;;5.93;1.52;;;;;;;20.94;40.28;100018.75;5052414;28;20159;-72
2022/05/22 09:04:25;;;;;;;4.05;1.60;;;;;;;21.15;40.27;100032.75;5068374;28;20068;-73
2022/05/22 09:07:09;;;;;;;4.03;1.40;;;;;;;21.21;40.20;100017.66;5052117;28;20052;-73
2022/05/22 09:09:42;;;;;;;4.45;1.40;;;;;;;21.55;40.72;100023.00;5051206;28;20055;-73
2022/05/22 09:12:21;;;;;;;4.20;1.80;;;;;;;21.45;38.89;100027.75;5053365;28;20103;-73
2022/05/22 09:15:02;;;;;;;4.25;1.63;;;;;;;20.94;39.80;100024.19;5055562;28;20083;-73
2022/05/22 09:17:37;;;;;;;2.45;1.50;;;;;;;21.19;38.98;100031.38;5071552;28;20048;-73
2022/05/22 09:20:17;;;;;;;4.10;1.60;;;;;;;21.33;38.28;100006.38;5054434;28;20052;-73
2022/05/22 09:22:57;;;;;;;3.92;1.58;;;;;;;21.47;37.95;99996.72;5054656;28;20053;-73
2022/05/22 09:25:35;;;;;;;2.83;1.40;;;;;;;22.02;38.01;99989.75;5055687;28;20387;-73
2022/05/22 09:28:13;;;;;;;2.90;1.45;;;;;;;21.84;37.37;99988.06;5055681;28;20095;-73
2022/05/22 09:30:50;;;;;;;4.00;1.60;;;;;;;21.67;38.38;99976.34;5071308;28;20071;-73
2022/05/22 09:33:29;;;;;;;2.28;1.30;;;;;;;21.77;37.86;99991.63;5055875;28;20076;-73
2022/05/22 09:36:12;;;;;;;3.60;1.60;;;;;;;21.84;37.97;99981.78;5054320;28;20407;-73
2022/05/22 09:39:00;;;;;;;2.77;1.47;;;;;;;21.64;37.92;99990.28;5054406;28;20052;-73
2022/05/22 09:41:40;;;;;;;3.83;1.42;;;;;;;21.81;37.70;99987.53;5071300;28;20448;-73
2022/05/22 09:44:27;;;;;;;3.55;1.58;;;;;;;21.72;38.24;99989.44;5054058;28;20053;-72
2022/05/22 09:47:41;;;;;;;3.92;1.60;;;;;;;21.90;37.31;99970.22;5070682;28;20462;-74
2022/05/22 09:50:35;;;;;;;3.42;1.42;;;;;;;22.13;37.07;99976.69;5070990;28;20118;-74
2022/05/22 09:53:07;;;;;;;4.50;1.50;;;;;;;22.08;36.61;99984.47;5055491;28;20057;-74
2022/05/22 09:55:44;;;;;;;4.43;1.60;;;;;;;21.90;37.17;99986.50;5070859;28;20144;-74
2022/05/22 09:58:45;;;;;;;2.88;1.30;;;;;;;21.96;37.01;99980.41;5055181;28;20112;-74
2022/05/22 10:01:21;;;;;;;2.58;1.40;;;;;;;22.19;36.54;99975.97;5070454;28;20460;-74
2022/05/22 10:04:00;;;;;;;3.60;1.30;;;;;;;22.37;36.08;99961.31;5055253;28;20037;-73
2022/05/22 10:06:37;;;;;;;2.67;1.42;;;;;;;22.06;36.60;99975.63;5055354;28;20063;-73
2022/05/22 10:09:16;;;;;;;4.63;1.65;;;;;;;22.03;36.46;99975.13;5070172;28;20049;-74
2022/05/22 10:12:10;;;;;;;4.90;1.50;;;;;;;21.53;36.65;99977.06;5055144;28;20037;-74
2022/05/22 10:15:08;;;;;;;3.70;1.70;;;;;;;21.66;36.04;99974.66;5054672;28;20036;-74
2022/05/22 10:17:52;;;;;;;3.20;1.73;;;;;;;21.91;36.42;99974.66;5070428;28;20099;-73
2022/05/22 10:20:31;;;;;;;5.15;1.30;;;;;;;22.07;35.20;99977.34;5070500;28;20060;-73
2022/05/22 10:23:07;;;;;;;3.58;1.48;;;;;;;22.16;34.80;99970.88;5054053;28;20041;-73
2022/05/22 10:25:49;;;;;;;4.50;1.30;;;;;;;22.46;35.02;99960.25;5054826;28;20068;-73
2022/05/22 10:28:20;;;;;;;3.60;1.52;;;;;;;22.36;34.86;99951.47;5053420;28;20041;-73
2022/05/22 10:30:56;;;;;;;3.33;1.40;;;;;;;22.12;35.00;99957.84;5053525;28;20052;-73
2022/05/22 10:33:30;;;;;;;4.30;1.60;;;;;;;22.46;34.32;99968.41;5053619;28;20045;-73
2022/05/22 10:36:05;;;;;;;3.65;1.70;;;;;;;22.15;35.46;99955.63;5054439;28;20037;-73
2022/05/22 10:38:37;;;;;;;4.40;1.60;;;;;;;21.93;34.75;99969.91;5053326;28;20092;-72
2022/05/22 10:44:09;;;;;;;4.78;1.65;;;;;;;22.30;35.03;99954.91;5052903;28;20053;-73
2022/05/22 10:46:50;;;;;;;2.58;1.50;;;;;;;22.33;34.99;99944.53;5053382;28;20049;-73
2022/05/22 10:49:20;;;;;;;3.60;1.50;;;;;;;22.57;35.01;99940.84;5069628;28;20548;-73
2022/05/22 10:51:59;;;;;;;3.25;1.30;;;;;;;22.53;34.83;99945.81;5054097;28;20447;-73
2022/05/22 10:54:31;;;;;;;5.00;1.65;;;;;;;22.12;34.31;99953.25;5069644;28;20071;-73
2022/05/22 10:57:09;;;;;;;2.80;1.42;;;;;;;21.93;34.28;99943.59;5052540;28;20568;-73
2022/05/22 10:59:38;;;;;;;3.15;1.55;;;;;;;21.94;34.55;99967.00;5053772;28;20087;-73
2022/05/22 11:02:18;;;;;;;4.72;1.20;;;;;;;22.15;34.41;99936.59;5052421;28;20136;-73
2022/05/22 11:04:48;;;;;;;4.35;2.13;;;;;;;22.22;34.82;99951.19;5052781;28;20057;-72
2022/05/22 11:07:29;;;;;;;4.60;1.30;;;;;;;22.45;34.78;99961.28;5052347;28;20452;-72
2022/05/22 11:10:06;;;;;;;3.17;1.33;;;;;;;22.61;34.75;99952.22;5053409;28;20099;-73
2022/05/22 11:12:34;;;;;;;3.05;1.38;;;;;;;22.32;33.69;99964.56;5053865;28;20474;-73
2022/05/22 11:15:11;;;;;;;3.35;1.20;;;;;;;22.05;34.74;99944.06;5053537;28;20052;-72
2022/05/22 11:17:41;;;;;;;2.67;1.15;;;;;;;22.58;34.56;99947.97;5069324;28;20053;-74
2022/05/22 11:20:15;;;;;;;3.20;1.52;;;;;;;22.74;34.60;99947.91;5052308;28;20437;-73
2022/05/22 11:22:59;;;;;;;4.43;1.45;;;;;;;22.31;34.56;99940.31;5068755;28;20053;-74
2022/05/22 11:25:39;;;;;;;3.40;1.30;;;;;;;22.44;34.94;99940.56;5069231;28;20064;-73
2022/05/22 11:28:22;;;;;;;2.97;1.40;;;;;;;22.59;34.22;99919.78;5052353;28;20060;-72
2022/05/22 11:30:57;;;;;;;3.97;1.40;;;;;;;22.77;33.58;99919.50;5052470;28;20127;-73
2022/05/22 11:33:41;;;;;;;4.93;1.50;;;;;;;22.70;33.92;99927.53;5053115;28;20090;-74
2022/05/22 11:36:22;;;;;;;2.88;1.23;;;;;;;22.77;34.11;99925.78;5053220;28;20037;-74
2022/05/22 11:39:10;;;;;;;3.25;1.50;;;;;;;22.89;33.81;99936.31;5068850;28;20123;-74
2022/05/22 11:41:46;;;;;;;2.97;1.50;;;;;;;22.97;33.70;99919.91;5053410;28;20071;-73
2022/05/22 11:44:45;;;;;;;5.30;1.60;;;;;;;22.83;33.91;99916.91;5053314;28;20041;-74
2022/05/22 11:47:29;;;;;;;4.82;1.42;;;;;;;22.26;34.20;99916.34;5068549;28;20432;-73
2022/05/22 11:50:06;;;;;;;3.72;1.50;;;;;;;22.12;34.52;99915.22;5053495;28;20044;-73
2022/05/22 11:52:57;;;;;;;5.30;1.45;;;;;;;22.28;34.24;99909.72;5053420;28;20114;-73
2022/05/22 11:55:39;;;;;;;7.38;1.40;;;;;;;22.47;33.80;99918.47;5052960;28;20379;-73
2022/05/22 11:58:21;;;;;;;4.90;1.73;;;;;;;22.89;33.12;99917.28;5068459;28;20049;-74
2022/05/22 12:00:59;;;;;;;2.88;1.40;;;;;;;22.57;33.02;99897.34;5051900;28;20099;-73